Tombos, Brazil
Current Conditions -  °F | °C
As of 7:00 AM on Friday 31 Oct 2014 (Local Time) from SBCP Reporting Station
Broken Clouds Broken Clouds  
Wind Chill: 75°   Ceiling: 9000
Heat Index: 75°   Visibility: 6mi
Dew Point: 68°   Wind: 14mph
Humidity: 78%   Direction: 70°ENE
Pressure: 29.94"   Gusts: NA
Location:  20.9°S, 42.02°W
Report Text: SBCP 310900Z 07012KT 9999 FEW020 BKN090 24/20 Q1014
Loading
Personal Weather Stations






























Interactive Weather Map
Tropical Storm Tracking
New forecast layout! Learn more

10-Day Weather Forecast

Advertisements
Track Severe Weather on mobile